Terminal Aerodrome Forecast
Issued by NWS Twin Cities, MN

Home | Current Version | Previous Version | Text Only | Print | Product List | Glossary On
Versions: 1 2 3 4 5 6 7 8 9 10 11 12 13 14 15 16 17 18 19 20 21 22 23 24 25 26
000
FTUS43 KMPX 161500 AAA
TAFMSP
TAF AMD
KMSP 161502Z 1615/1718 22007KT P6SM SKC
     FM161600 23009KT P6SM FEW050
     FM170100 18003KT P6SM SKC
     FM171500 23005KT P6SM SKC=

USA.gov is the U.S. government's official web portal to all federal, state and local government web resources and services.